Time;durP1;ratioP1;P1;durP2;ratioP2;P2;SDS_P1;SDS_P2;PMS_P1;PMS_P2;Temp;Humidity;BMP_temperature;BMP_pressure;BME280_temperature;BME280_humidity;BME280_pressure;Samples;Min_cycle;Max_cycle;Signal;HPM_P1;HPM_P2
2020/12/14 00:01:04;;;;;;;13.00;12.10;;;4.50;99.90;;;;;;5033964;28;20454;-79
2020/12/14 00:03:32;;;;;;;12.80;11.90;;;4.50;99.90;;;;;;5034821;28;20434;-80
2020/12/14 00:05:58;;;;;;;12.73;11.83;;;4.40;99.90;;;;;;5033600;28;20467;-80
2020/12/14 00:08:24;;;;;;;13.60;12.60;;;4.40;99.90;;;;;;5033160;28;20438;-78
2020/12/14 00:10:52;;;;;;;13.23;12.23;;;4.40;99.90;;;;;;5035098;28;20430;-80
2020/12/14 00:13:18;;;;;;;13.90;12.90;;;4.30;99.90;;;;;;5033510;28;20441;-78
2020/12/14 00:15:45;;;;;;;13.10;12.10;;;4.30;99.90;;;;;;5032581;28;20520;-78
2020/12/14 00:18:11;;;;;;;12.63;11.73;;;4.30;99.90;;;;;;5032756;28;20442;-79
2020/12/14 00:20:38;;;;;;;13.00;12.10;;;4.30;99.90;;;;;;5034655;28;20443;-79
2020/12/14 00:23:04;;;;;;;12.27;11.47;;;4.20;99.90;;;;;;5034751;28;20470;-79
2020/12/14 00:25:30;;;;;;;13.17;12.07;;;4.20;99.90;;;;;;5034649;28;20461;-78
2020/12/14 00:27:58;;;;;;;12.70;11.80;;;4.20;99.90;;;;;;5033202;28;20959;-80
2020/12/14 00:30:24;;;;;;;12.80;11.70;;;4.10;99.90;;;;;;5032306;28;20453;-80
2020/12/14 00:32:50;;;;;;;12.83;11.93;;;4.10;99.90;;;;;;5034479;28;20886;-79
2020/12/14 00:35:17;;;;;;;13.03;12.03;;;4.10;99.90;;;;;;5034056;28;20453;-79
2020/12/14 00:37:43;;;;;;;13.90;12.90;;;4.10;99.90;;;;;;5032662;28;20442;-80
2020/12/14 00:40:09;;;;;;;14.13;13.00;;;4.10;99.90;;;;;;5033766;28;21000;-80
2020/12/14 00:42:36;;;;;;;14.60;13.37;;;4.10;99.90;;;;;;5034413;28;20431;-79
2020/12/14 00:45:03;;;;;;;14.67;13.50;;;4.00;99.90;;;;;;5032679;28;20477;-79
2020/12/14 00:47:29;;;;;;;15.20;14.00;;;4.10;99.90;;;;;;5034565;28;20825;-79
2020/12/14 00:49:55;;;;;;;14.50;13.30;;;4.10;99.90;;;;;;5032580;28;20533;-80
2020/12/14 00:52:22;;;;;;;13.33;12.37;;;4.10;99.90;;;;;;5032870;28;20448;-80
2020/12/14 00:54:48;;;;;;;13.73;12.67;;;4.10;99.90;;;;;;5032776;28;20493;-79
2020/12/14 00:57:14;;;;;;;14.23;13.13;;;4.10;99.90;;;;;;5032961;28;20442;-78
2020/12/14 00:59:40;;;;;;;14.47;13.33;;;4.10;99.90;;;;;;5032474;28;20504;-79
2020/12/14 01:02:07;;;;;;;14.80;13.50;;;4.10;99.90;;;;;;5032337;28;20554;-79
2020/12/14 01:04:34;;;;;;;13.73;12.67;;;4.20;99.90;;;;;;5032696;28;20556;-79
2020/12/14 01:07:00;;;;;;;14.70;13.50;;;4.20;99.90;;;;;;5032610;28;20538;-78
2020/12/14 01:09:26;;;;;;;14.03;12.97;;;4.20;99.90;;;;;;5031765;28;20450;-80
2020/12/14 01:11:52;;;;;;;14.77;13.60;;;4.20;99.90;;;;;;5033093;28;20449;-80
2020/12/14 01:14:19;;;;;;;14.43;13.33;;;4.20;99.90;;;;;;5033394;28;20480;-79
2020/12/14 01:16:47;;;;;;;14.20;13.13;;;4.20;99.90;;;;;;5033842;28;20434;-79
2020/12/14 01:19:14;;;;;;;13.90;12.87;;;4.20;99.90;;;;;;5032968;28;20922;-78
2020/12/14 01:21:41;;;;;;;14.20;13.20;;;4.20;99.90;;;;;;5033536;28;20869;-80
2020/12/14 01:24:07;;;;;;;13.80;12.80;;;4.20;99.90;;;;;;5033076;28;20863;-80
2020/12/14 01:26:33;;;;;;;14.30;13.20;;;4.20;99.90;;;;;;5031673;28;20474;-80
2020/12/14 01:29:00;;;;;;;14.80;13.57;;;4.20;99.90;;;;;;5032301;28;20438;-79
2020/12/14 01:31:27;;;;;;;13.90;12.90;;;4.20;99.90;;;;;;5031376;28;20450;-79
2020/12/14 01:33:54;;;;;;;13.63;12.63;;;4.20;99.90;;;;;;5031508;28;20458;-78
2020/12/14 01:36:21;;;;;;;14.00;12.97;;;4.20;99.90;;;;;;5033143;28;20531;-80
2020/12/14 01:38:47;;;;;;;13.53;12.43;;;4.20;99.90;;;;;;5031046;28;20452;-79
2020/12/14 01:41:14;;;;;;;13.63;12.73;;;4.20;99.90;;;;;;5031312;28;20997;-80
2020/12/14 01:43:40;;;;;;;13.17;12.27;;;4.20;99.90;;;;;;5032333;28;20453;-79
2020/12/14 01:46:06;;;;;;;13.60;12.63;;;4.20;99.90;;;;;;5030255;28;20509;-78
2020/12/14 01:48:33;;;;;;;13.10;12.20;;;4.10;99.90;;;;;;5030145;28;20534;-79
2020/12/14 01:50:59;;;;;;;13.37;12.37;;;4.10;99.90;;;;;;5032875;28;20430;-78
2020/12/14 01:53:28;;;;;;;13.17;12.23;;;4.10;99.90;;;;;;5032576;28;20433;-78
2020/12/14 01:55:56;;;;;;;13.17;12.27;;;4.10;99.90;;;;;;5032767;28;20847;-79
2020/12/14 01:58:22;;;;;;;12.90;12.00;;;4.20;99.90;;;;;;5030114;28;20450;-78
2020/12/14 02:00:49;;;;;;;12.10;11.30;;;4.10;99.90;;;;;;5032452;28;21027;-80
2020/12/14 02:03:15;;;;;;;12.67;11.77;;;4.10;99.90;;;;;;5031004;28;20442;-79
2020/12/14 02:05:41;;;;;;;13.03;12.13;;;4.10;99.90;;;;;;5030583;28;20462;-80
2020/12/14 02:08:08;;;;;;;12.80;11.90;;;4.10;99.90;;;;;;5031060;28;20529;-78
2020/12/14 02:10:36;;;;;;;12.93;12.07;;;4.10;99.90;;;;;;5031771;28;20434;-79
2020/12/14 02:13:02;;;;;;;12.70;11.87;;;4.10;99.90;;;;;;5032549;28;20431;-80
2020/12/14 02:15:29;;;;;;;13.17;12.17;;;4.10;99.90;;;;;;5031395;28;20473;-79
2020/12/14 02:17:55;;;;;;;12.93;12.10;;;4.10;99.90;;;;;;5032073;28;20438;-78
2020/12/14 02:20:21;;;;;;;12.50;11.60;;;4.20;99.90;;;;;;5034196;28;20446;-79
2020/12/14 02:22:47;;;;;;;12.30;11.50;;;4.20;99.90;;;;;;5034543;28;20511;-78
2020/12/14 02:25:15;;;;;;;12.60;11.70;;;4.20;99.90;;;;;;5035185;28;20885;-78
2020/12/14 02:27:42;;;;;;;12.77;11.87;;;4.20;99.90;;;;;;5036361;28;20477;-78
2020/12/14 02:30:08;;;;;;;11.90;11.10;;;4.20;99.90;;;;;;5034584;28;20530;-80
2020/12/14 02:32:35;;;;;;;12.23;11.43;;;4.20;99.90;;;;;;5035887;28;20475;-80
2020/12/14 02:35:01;;;;;;;12.27;11.47;;;4.10;99.90;;;;;;5034826;28;20469;-79
2020/12/14 02:37:29;;;;;;;12.27;11.47;;;4.10;99.90;;;;;;5034580;28;20955;-79
2020/12/14 02:39:56;;;;;;;12.23;11.43;;;4.10;99.90;;;;;;5034060;28;20437;-79
2020/12/14 02:42:25;;;;;;;11.80;11.00;;;4.00;99.90;;;;;;5035788;28;20437;-80
2020/12/14 02:44:51;;;;;;;11.83;11.03;;;4.00;99.90;;;;;;5052968;22;20535;-80
2020/12/14 02:47:18;;;;;;;12.40;11.60;;;4.00;99.90;;;;;;5015012;28;20487;-83
2020/12/14 02:49:45;;;;;;;11.83;11.03;;;4.00;99.90;;;;;;5018302;28;20990;-79
2020/12/14 02:52:13;;;;;;;11.77;10.97;;;4.00;99.90;;;;;;5034662;28;20812;-79
2020/12/14 02:54:42;;;;;;;11.87;11.07;;;4.00;99.90;;;;;;5028230;28;20900;-80
2020/12/14 02:57:09;;;;;;;12.20;11.40;;;3.90;99.90;;;;;;5014840;28;20432;-80
2020/12/14 02:59:36;;;;;;;12.20;11.40;;;3.90;99.90;;;;;;5012871;28;20477;-80
2020/12/14 03:02:03;;;;;;;12.03;11.17;;;3.90;99.90;;;;;;5013692;28;20446;-80
2020/12/14 03:04:30;;;;;;;12.57;11.77;;;3.90;99.90;;;;;;5013586;28;20461;-80
2020/12/14 03:06:57;;;;;;;12.37;11.57;;;3.90;99.90;;;;;;5013259;28;20478;-80
2020/12/14 03:09:23;;;;;;;12.50;11.70;;;3.90;99.90;;;;;;5012926;28;20439;-80
2020/12/14 03:11:50;;;;;;;13.30;12.40;;;3.80;99.90;;;;;;5013340;28;20542;-80
2020/12/14 03:14:17;;;;;;;12.67;11.87;;;3.80;99.90;;;;;;5013228;28;20494;-81
2020/12/14 03:16:46;;;;;;;13.50;12.60;;;3.80;99.90;;;;;;5013233;28;20507;-80
2020/12/14 03:19:13;;;;;;;13.80;12.90;;;3.80;99.90;;;;;;5012734;28;20506;-82
2020/12/14 03:21:39;;;;;;;13.77;12.77;;;3.70;99.90;;;;;;5012985;28;20459;-80
2020/12/14 03:24:06;;;;;;;13.30;12.47;;;3.70;99.90;;;;;;5013453;28;20858;-80
2020/12/14 03:26:32;;;;;;;13.93;13.03;;;3.70;99.90;;;;;;5016036;28;20721;-80
2020/12/14 03:28:59;;;;;;;11.90;11.17;;;3.60;99.90;;;;;;5019575;28;20436;-82
2020/12/14 03:31:25;;;;;;;12.87;11.87;;;3.60;99.90;;;;;;5021116;28;20443;-80
2020/12/14 03:33:54;;;;;;;12.73;11.90;;;3.50;99.90;;;;;;5006628;28;20448;-80
2020/12/14 03:36:20;;;;;;;12.53;11.73;;;3.50;99.90;;;;;;5004689;28;20476;-79
2020/12/14 03:38:47;;;;;;;11.60;10.90;;;3.50;99.90;;;;;;5000464;28;20505;-80
2020/12/14 03:41:14;;;;;;;12.80;11.90;;;3.40;99.90;;;;;;5003994;28;20440;-78
2020/12/14 03:43:40;;;;;;;12.80;11.90;;;3.40;99.90;;;;;;4995896;28;20502;-77
2020/12/14 03:46:13;;;;;;;14.13;13.13;;;3.30;99.90;;;;;;4995650;28;20528;-77
2020/12/14 03:48:39;;;;;;;13.87;12.97;;;3.30;99.90;;;;;;4994827;28;20438;-78
2020/12/14 03:51:08;;;;;;;14.57;13.53;;;3.30;99.90;;;;;;4997236;28;20533;-84
2020/12/14 03:53:35;;;;;;;14.77;13.67;;;3.30;99.90;;;;;;4997547;28;20456;-78
2020/12/14 03:56:01;;;;;;;14.77;13.70;;;3.30;99.90;;;;;;4992681;28;20517;-79
2020/12/14 03:58:27;;;;;;;14.80;13.80;;;3.30;99.90;;;;;;4997372;28;20877;-82
2020/12/14 04:00:53;;;;;;;15.47;14.30;;;3.30;99.90;;;;;;4995527;28;20511;-81
2020/12/14 04:03:22;;;;;;;14.50;13.43;;;3.30;99.90;;;;;;4994211;28;20441;-81
2020/12/14 04:05:48;;;;;;;15.33;14.23;;;3.30;99.90;;;;;;4997335;28;20457;-79
2020/12/14 04:08:15;;;;;;;14.63;13.63;;;3.30;99.90;;;;;;4994960;28;20933;-79
2020/12/14 04:10:41;;;;;;;15.40;14.20;;;3.20;99.90;;;;;;4993983;28;20503;-79
2020/12/14 04:13:08;;;;;;;15.73;14.53;;;3.20;99.90;;;;;;4999895;28;20449;-80
2020/12/14 04:15:34;;;;;;;15.87;14.70;;;3.20;99.90;;;;;;4994026;28;20462;-79
2020/12/14 04:18:00;;;;;;;15.43;14.33;;;3.20;99.90;;;;;;4996279;28;20790;-79
2020/12/14 04:20:26;;;;;;;16.53;15.27;;;3.20;99.90;;;;;;4993814;28;20818;-79
2020/12/14 04:22:53;;;;;;;16.37;15.13;;;3.20;99.90;;;;;;4994626;28;20881;-80
2020/12/14 04:25:20;;;;;;;15.83;14.63;;;3.20;99.90;;;;;;4996087;28;20468;-78
2020/12/14 04:27:46;;;;;;;16.20;14.90;;;3.20;99.90;;;;;;5015207;28;20532;-80
2020/12/14 04:30:13;;;;;;;15.83;14.67;;;3.20;99.90;;;;;;5012820;28;20447;-80
2020/12/14 04:32:39;;;;;;;16.07;14.87;;;3.10;99.90;;;;;;5012518;28;20442;-81
2020/12/14 04:35:06;;;;;;;15.27;14.17;;;3.00;99.90;;;;;;5014057;28;20455;-80
2020/12/14 04:37:32;;;;;;;16.47;15.27;;;2.90;99.90;;;;;;5012288;28;20948;-81
2020/12/14 04:39:59;;;;;;;16.37;15.27;;;2.60;99.90;;;;;;5011705;28;20444;-80
2020/12/14 04:42:28;;;;;;;16.27;15.17;;;2.50;99.90;;;;;;5012169;28;20453;-80
2020/12/14 04:44:55;;;;;;;16.60;15.40;;;2.40;99.90;;;;;;5012491;28;20474;-80
2020/12/14 04:47:22;;;;;;;16.63;15.50;;;2.30;99.90;;;;;;5013811;28;20480;-80
2020/12/14 04:49:49;;;;;;;16.63;15.40;;;2.20;99.90;;;;;;5015160;28;20435;-80
2020/12/14 04:52:17;;;;;;;16.20;15.10;;;2.20;99.90;;;;;;5014368;28;20436;-80
2020/12/14 04:54:47;;;;;;;16.73;15.60;;;2.10;99.90;;;;;;5014801;28;20448;-80
2020/12/14 04:57:14;;;;;;;17.30;16.00;;;2.00;99.90;;;;;;5012850;28;20479;-80
2020/12/14 04:59:41;;;;;;;16.80;15.63;;;2.00;99.90;;;;;;5013763;28;20450;-80
2020/12/14 05:02:08;;;;;;;17.30;16.10;;;2.00;99.90;;;;;;5013153;28;20456;-80
2020/12/14 05:04:35;;;;;;;17.50;16.30;;;1.90;99.90;;;;;;5012641;28;20467;-80
2020/12/14 05:07:02;;;;;;;15.07;13.80;;;2.00;99.90;;;;;;5013924;28;20542;-79
2020/12/14 05:09:29;;;;;;;15.37;14.17;;;1.90;99.90;;;;;;5012853;28;20448;-81
2020/12/14 05:11:55;;;;;;;14.50;13.50;;;1.90;99.90;;;;;;5012876;28;20872;-81
2020/12/14 05:14:23;;;;;;;18.80;17.20;;;1.80;99.90;;;;;;5014688;28;20435;-80
2020/12/14 05:16:51;;;;;;;17.77;16.37;;;1.80;99.90;;;;;;5012983;28;20819;-81
2020/12/14 05:19:19;;;;;;;20.90;19.10;;;1.80;99.90;;;;;;5013264;28;20963;-81
2020/12/14 05:21:49;;;;;;;19.63;18.03;;;1.80;99.90;;;;;;5014615;28;20440;-82
2020/12/14 05:24:23;;;;;;;18.23;16.83;;;1.70;99.90;;;;;;5012646;28;20444;-81
2020/12/14 05:26:50;;;;;;;17.87;16.47;;;1.70;99.90;;;;;;5011887;28;20463;-80
2020/12/14 05:29:18;;;;;;;17.43;16.23;;;1.70;99.90;;;;;;5011584;28;21025;-80
2020/12/14 05:32:11;;;;;;;17.20;16.00;;;1.70;99.90;;;;;;5011535;28;20445;-79
2020/12/14 05:34:39;;;;;;;17.97;16.67;;;1.60;99.90;;;;;;5011721;28;20480;-80
2020/12/14 05:37:07;;;;;;;18.40;17.10;;;1.60;99.90;;;;;;5012018;28;20452;-80
2020/12/14 05:39:35;;;;;;;18.43;16.83;;;1.60;99.90;;;;;;5010853;28;20447;-81
2020/12/14 05:42:14;;;;;;;18.17;16.83;;;1.50;99.90;;;;;;5011773;28;20452;-80
2020/12/14 05:44:41;;;;;;;17.93;16.53;;;1.50;99.90;;;;;;5011957;28;20486;-79
2020/12/14 05:47:26;;;;;;;18.67;17.33;;;1.50;99.90;;;;;;5011298;28;20995;-80
2020/12/14 05:49:53;;;;;;;17.57;16.27;;;1.40;99.90;;;;;;5010693;28;20530;-80
2020/12/14 05:52:21;;;;;;;17.03;15.77;;;1.50;99.90;;;;;;5010422;28;20473;-81
2020/12/14 05:54:52;;;;;;;16.13;14.83;;;1.40;99.90;;;;;;5012583;28;20507;-81
2020/12/14 05:57:33;;;;;;;16.33;15.23;;;1.50;99.90;;;;;;5011630;28;20963;-81
2020/12/14 06:00:01;;;;;;;17.63;16.33;;;1.40;99.90;;;;;;5009949;28;20439;-80
2020/12/14 06:02:28;;;;;;;16.60;15.50;;;1.40;99.90;;;;;;5010715;28;20452;-80
2020/12/14 06:05:02;;;;;;;17.17;16.07;;;1.40;99.90;;;;;;5011059;28;20489;-80
2020/12/14 06:07:29;;;;;;;15.67;14.23;;;1.40;99.90;;;;;;5011202;28;20526;-80
2020/12/14 06:10:19;;;;;;;17.07;15.60;;;1.30;99.90;;;;;;5010440;28;21098;-80
2020/12/14 06:12:46;;;;;;;18.63;16.93;;;1.30;99.90;;;;;;5011134;28;20452;-80
2020/12/14 06:15:13;;;;;;;19.10;17.40;;;1.30;99.90;;;;;;5010503;28;20460;-80
2020/12/14 06:17:40;;;;;;;20.07;18.47;;;1.40;99.90;;;;;;5010843;28;20440;-80
2020/12/14 06:20:10;;;;;;;18.57;17.17;;;1.40;99.90;;;;;;5011514;28;20493;-80
2020/12/14 06:22:42;;;;;;;20.47;18.67;;;1.40;99.90;;;;;;5012168;28;20863;-80
2020/12/14 06:25:09;;;;;;;18.90;17.60;;;1.40;99.90;;;;;;5010984;28;20467;-80
2020/12/14 06:27:35;;;;;;;18.90;17.50;;;1.40;99.90;;;;;;5011100;28;20486;-80
2020/12/14 06:30:32;;;;;;;18.40;17.10;;;1.40;99.90;;;;;;5010133;28;20876;-80
2020/12/14 06:33:00;;;;;;;18.07;16.67;;;1.40;99.90;;;;;;5010916;28;20993;-80
2020/12/14 06:35:49;;;;;;;18.57;17.17;;;1.30;99.90;;;;;;5010292;28;20526;-80
2020/12/14 06:38:37;;;;;;;18.63;17.23;;;1.30;99.90;;;;;;5009914;28;20464;-80
2020/12/14 06:41:04;;;;;;;17.23;16.03;;;1.20;99.90;;;;;;5010791;28;20535;-80
2020/12/14 06:43:32;;;;;;;17.47;16.17;;;1.20;99.90;;;;;;5011894;28;20853;-80
2020/12/14 06:45:59;;;;;;;17.33;16.03;;;1.10;99.90;;;;;;5011425;28;20464;-80
2020/12/14 06:48:36;;;;;;;17.30;16.10;;;1.10;99.90;;;;;;5009718;28;20495;-80
2020/12/14 06:51:03;;;;;;;17.83;16.53;;;1.10;99.90;;;;;;5012347;28;20427;-80
2020/12/14 06:53:47;;;;;;;17.80;16.60;;;1.10;99.90;;;;;;5009919;28;20447;-80
2020/12/14 06:56:15;;;;;;;18.00;16.60;;;1.10;99.90;;;;;;5010414;28;20916;-80
2020/12/14 06:58:43;;;;;;;18.93;17.43;;;1.10;99.90;;;;;;5009329;28;20893;-80
2020/12/14 07:01:35;;;;;;;19.60;18.10;;;1.20;99.90;;;;;;5009908;28;20470;-79
2020/12/14 07:04:05;;;;;;;18.37;17.07;;;1.20;99.90;;;;;;5012922;28;20468;-80
2020/12/14 07:06:32;;;;;;;18.63;17.10;;;1.20;99.90;;;;;;5014987;28;20436;-79
2020/12/14 07:08:58;;;;;;;18.37;16.97;;;1.30;99.90;;;;;;5015077;28;20483;-79
2020/12/14 07:11:26;;;;;;;17.93;16.63;;;1.30;99.90;;;;;;5014974;28;20859;-80
2020/12/14 07:13:54;;;;;;;17.50;16.20;;;1.30;99.90;;;;;;5014802;28;20515;-80
2020/12/14 07:16:29;;;;;;;19.17;17.47;;;1.30;99.90;;;;;;5014672;28;20452;-80
2020/12/14 07:18:56;;;;;;;18.07;16.67;;;1.30;99.90;;;;;;5014008;28;20431;-80
2020/12/14 07:21:24;;;;;;;18.30;17.00;;;1.30;99.90;;;;;;5013390;28;20466;-80
2020/12/14 07:23:52;;;;;;;17.67;16.37;;;1.40;99.90;;;;;;5013472;28;20681;-79
2020/12/14 07:26:18;;;;;;;18.27;16.73;;;1.40;99.90;;;;;;5012846;28;20467;-81
2020/12/14 07:28:47;;;;;;;18.93;17.37;;;1.50;99.90;;;;;;5012050;28;20475;-80
2020/12/14 07:31:18;;;;;;;19.10;17.60;;;1.50;99.90;;;;;;5013887;28;20431;-80
2020/12/14 07:33:53;;;;;;;18.70;17.20;;;1.60;99.90;;;;;;5014066;28;20432;-80
2020/12/14 07:36:19;;;;;;;19.43;17.83;;;1.60;99.90;;;;;;5014006;28;20447;-80
2020/12/14 07:38:53;;;;;;;18.13;16.73;;;1.60;99.90;;;;;;5011968;28;20448;-80
2020/12/14 07:41:19;;;;;;;18.67;17.17;;;1.70;99.90;;;;;;5013028;28;20463;-80
2020/12/14 07:43:54;;;;;;;18.13;16.83;;;1.70;99.90;;;;;;5012836;28;20458;-80
2020/12/14 07:46:23;;;;;;;18.80;17.30;;;1.80;99.90;;;;;;5013209;28;20473;-80
2020/12/14 07:48:57;;;;;;;18.40;17.00;;;1.80;99.90;;;;;;5012135;28;20496;-80
2020/12/14 07:51:24;;;;;;;18.23;16.93;;;1.90;99.90;;;;;;5014436;28;20433;-80
2020/12/14 07:53:52;;;;;;;18.10;16.70;;;2.00;99.90;;;;;;5012586;28;20763;-79
2020/12/14 07:56:19;;;;;;;18.63;17.33;;;2.00;99.90;;;;;;5012251;28;20522;-80
2020/12/14 07:58:47;;;;;;;18.17;16.87;;;2.10;99.90;;;;;;5012985;28;20475;-80
2020/12/14 08:01:18;;;;;;;18.77;17.37;;;2.20;99.90;;;;;;5012539;28;20448;-80
2020/12/14 08:03:45;;;;;;;19.17;17.73;;;2.40;99.90;;;;;;5011947;28;20448;-80
2020/12/14 08:06:13;;;;;;;18.53;17.07;;;2.70;99.90;;;;;;5013658;28;20486;-80
2020/12/14 08:08:42;;;;;;;18.93;17.27;;;3.10;99.90;;;;;;5016486;28;20476;-81
2020/12/14 08:11:11;;;;;;;19.00;17.43;;;3.30;99.90;;;;;;5016762;28;20997;-80
2020/12/14 08:13:38;;;;;;;16.97;15.67;;;3.70;99.90;;;;;;5013367;28;20442;-81
2020/12/14 08:16:05;;;;;;;16.53;15.33;;;3.80;99.90;;;;;;5011507;28;20559;-80
2020/12/14 08:18:34;;;;;;;16.40;15.20;;;4.00;99.90;;;;;;5011559;28;20447;-80
2020/12/14 08:21:00;;;;;;;16.53;15.13;;;4.00;99.90;;;;;;5012357;28;20518;-80
2020/12/14 08:23:30;;;;;;;16.80;15.60;;;4.00;99.90;;;;;;5013543;28;20439;-80
2020/12/14 08:25:57;;;;;;;16.00;14.80;;;4.10;99.90;;;;;;5012230;28;20480;-81
2020/12/14 08:28:31;;;;;;;9.23;7.10;;;4.20;99.90;;;;;;5012764;28;20912;-81
2020/12/14 08:30:58;;;;;;;9.90;7.87;;;4.40;99.90;;;;;;5012072;28;20451;-80
2020/12/14 08:33:25;;;;;;;12.57;11.57;;;4.60;99.90;;;;;;5013016;28;20438;-81
2020/12/14 08:35:53;;;;;;;9.83;8.93;;;4.80;99.90;;;;;;5011885;28;20483;-80
2020/12/14 08:38:21;;;;;;;13.13;11.93;;;4.90;99.90;;;;;;5012574;28;20507;-81
2020/12/14 08:40:52;;;;;;;14.83;13.63;;;5.20;99.90;;;;;;5012278;28;20478;-81
2020/12/14 08:43:20;;;;;;;8.90;6.93;;;5.20;99.90;;;;;;5013300;28;20481;-81
2020/12/14 08:46:01;;;;;;;10.73;9.80;;;5.20;99.90;;;;;;5014164;28;20467;-81
2020/12/14 08:48:28;;;;;;;9.27;7.40;;;5.20;99.90;;;;;;5011142;28;21069;-81
2020/12/14 08:51:06;;;;;;;8.53;6.87;;;5.20;99.90;;;;;;5011983;28;20196;-81
2020/12/14 08:53:32;;;;;;;9.87;8.87;;;5.20;99.90;;;;;;5011612;28;20484;-80
2020/12/14 08:56:04;;;;;;;8.70;7.00;;;5.20;99.90;;;;;;5012856;28;20236;-82
2020/12/14 08:58:31;;;;;;;17.07;15.77;;;5.20;99.90;;;;;;5012346;28;20470;-81
2020/12/14 09:01:09;;;;;;;17.37;16.07;;;5.20;99.90;;;;;;5011779;28;20260;-81
2020/12/14 09:03:47;;;;;;;15.23;13.97;;;5.10;99.90;;;;;;5011680;28;20286;-81
2020/12/14 09:06:24;;;;;;;14.70;13.60;;;5.10;99.90;;;;;;5012448;28;20208;-80
2020/12/14 09:09:08;;;;;;;14.70;13.57;;;5.00;99.90;;;;;;5010250;28;20529;-80
2020/12/14 09:11:36;;;;;;;14.20;13.20;;;4.90;99.90;;;;;;5012223;28;20243;-80
2020/12/14 09:14:04;;;;;;;14.13;13.10;;;4.80;99.90;;;;;;5012394;28;20493;-81
2020/12/14 09:16:32;;;;;;;14.77;13.63;;;4.80;99.90;;;;;;5010312;28;20443;-80
2020/12/14 09:18:58;;;;;;;15.13;13.90;;;4.70;99.90;;;;;;5010246;28;20435;-80
2020/12/14 09:21:25;;;;;;;15.03;13.73;;;4.60;99.90;;;;;;5010842;28;20478;-80
2020/12/14 09:24:11;;;;;;;9.40;8.50;;;4.60;99.90;;;;;;5012463;28;20442;-81
2020/12/14 09:26:37;;;;;;;15.00;13.90;;;4.50;99.90;;;;;;5012555;28;20431;-80
2020/12/14 09:29:03;;;;;;;12.93;11.63;;;4.50;99.90;;;;;;5011621;28;20537;-80
2020/12/14 09:31:30;;;;;;;15.17;13.87;;;4.50;99.90;;;;;;5010272;28;20876;-80
2020/12/14 09:33:57;;;;;;;15.73;14.50;;;4.50;99.90;;;;;;5010672;28;20458;-80
2020/12/14 09:36:23;;;;;;;16.13;14.63;;;4.50;99.90;;;;;;5010383;28;20532;-80
2020/12/14 09:38:50;;;;;;;11.43;10.40;;;4.50;99.90;;;;;;5010435;28;20944;-81
2020/12/14 09:41:16;;;;;;;16.37;14.97;;;4.60;99.90;;;;;;5011885;28;20486;-80
2020/12/14 09:43:43;;;;;;;17.87;16.47;;;4.60;99.90;;;;;;5010711;28;20472;-80
2020/12/14 09:46:09;;;;;;;15.67;14.37;;;4.60;99.90;;;;;;5010585;28;20474;-80
2020/12/14 09:48:36;;;;;;;15.10;13.87;;;4.60;99.90;;;;;;5010877;28;20586;-80
2020/12/14 09:51:04;;;;;;;15.20;14.00;;;4.70;99.90;;;;;;5011729;28;20428;-80
2020/12/14 09:53:30;;;;;;;15.73;14.43;;;4.80;99.90;;;;;;5011611;28;20807;-80
2020/12/14 09:55:57;;;;;;;15.40;14.23;;;4.80;99.90;;;;;;5010165;28;20901;-80
2020/12/14 09:58:23;;;;;;;15.03;13.93;;;4.90;99.90;;;;;;5010744;28;20435;-80
2020/12/14 10:00:49;;;;;;;15.30;14.20;;;4.90;99.90;;;;;;5011807;28;20485;-80
2020/12/14 10:03:15;;;;;;;15.37;14.17;;;5.00;99.90;;;;;;5010290;28;20448;-81
2020/12/14 10:05:47;;;;;;;15.50;14.40;;;5.00;99.90;;;;;;5011534;28;20871;-80
2020/12/14 10:08:15;;;;;;;15.33;14.17;;;5.10;99.90;;;;;;5009375;28;20485;-80
2020/12/14 10:10:42;;;;;;;15.40;14.20;;;5.10;99.90;;;;;;5010620;28;20439;-80
2020/12/14 10:13:09;;;;;;;14.93;13.73;;;5.20;99.90;;;;;;5010682;28;20467;-80
2020/12/14 10:15:35;;;;;;;14.57;13.47;;;5.30;99.90;;;;;;5011634;28;20987;-80
2020/12/14 10:18:01;;;;;;;14.40;13.30;;;5.30;99.90;;;;;;4997470;28;20453;-81
2020/12/14 10:20:28;;;;;;;14.90;13.70;;;5.40;99.90;;;;;;4991431;28;20197;-80
2020/12/14 10:22:55;;;;;;;14.63;13.53;;;5.40;99.90;;;;;;4990641;28;20550;-80
2020/12/14 10:25:24;;;;;;;14.67;13.57;;;5.50;99.90;;;;;;4991221;28;20378;-80
2020/12/14 10:27:50;;;;;;;14.10;13.10;;;5.50;99.90;;;;;;5007258;28;20283;-80
2020/12/14 10:30:16;;;;;;;15.00;13.90;;;5.60;99.90;;;;;;4990359;28;20448;-80
2020/12/14 10:32:43;;;;;;;14.03;13.03;;;5.60;99.90;;;;;;4991370;28;20445;-80
2020/12/14 10:35:09;;;;;;;15.60;14.40;;;5.70;99.90;;;;;;5007231;28;20717;-80
2020/12/14 10:37:36;;;;;;;14.57;13.37;;;5.80;99.90;;;;;;4992551;28;20236;-80
2020/12/14 10:40:04;;;;;;;15.27;14.17;;;5.80;99.90;;;;;;4993101;28;20197;-80
2020/12/14 10:42:32;;;;;;;16.13;15.03;;;5.90;99.90;;;;;;4994795;28;20207;-81
2020/12/14 10:44:58;;;;;;;15.23;14.03;;;6.00;99.90;;;;;;4994129;28;20637;-80
2020/12/14 10:47:25;;;;;;;15.53;14.23;;;6.10;99.90;;;;;;5001271;28;20244;-81
2020/12/14 10:49:51;;;;;;;16.93;15.70;;;6.10;99.90;;;;;;5013453;28;20197;-80
2020/12/14 10:52:17;;;;;;;16.83;15.60;;;6.20;99.90;;;;;;5014293;28;20200;-81
2020/12/14 10:54:43;;;;;;;15.53;14.33;;;6.20;99.90;;;;;;5014071;28;20252;-81
2020/12/14 10:57:10;;;;;;;14.63;13.57;;;6.30;99.90;;;;;;5013659;28;20201;-80
2020/12/14 10:59:37;;;;;;;15.20;14.10;;;6.30;99.90;;;;;;5012795;28;20239;-80
2020/12/14 11:02:03;;;;;;;14.40;13.30;;;6.40;99.90;;;;;;5013768;28;20200;-80
2020/12/14 11:04:29;;;;;;;14.53;13.43;;;6.40;99.90;;;;;;5014566;28;20225;-81
2020/12/14 11:06:56;;;;;;;12.23;11.33;;;6.40;99.90;;;;;;5014172;28;20659;-81
2020/12/14 11:09:22;;;;;;;11.47;10.47;;;6.40;99.90;;;;;;5014741;28;20736;-81
2020/12/14 11:11:48;;;;;;;13.87;12.77;;;6.50;99.90;;;;;;5015418;28;20193;-81
2020/12/14 11:14:15;;;;;;;15.03;14.03;;;6.60;99.90;;;;;;5015147;28;20201;-80
2020/12/14 11:16:45;;;;;;;15.80;14.60;;;6.70;99.90;;;;;;5015180;28;20728;-81
2020/12/14 11:19:11;;;;;;;16.57;15.27;;;6.70;99.90;;;;;;5012447;28;20196;-81
2020/12/14 11:21:37;;;;;;;17.37;16.00;;;6.70;99.90;;;;;;5015003;28;20241;-81
2020/12/14 11:24:05;;;;;;;15.57;14.47;;;6.70;99.90;;;;;;5014115;28;20200;-80
2020/12/14 11:26:31;;;;;;;16.57;15.30;;;6.70;99.90;;;;;;5014001;28;20296;-81
2020/12/14 11:28:57;;;;;;;17.20;15.90;;;6.80;99.90;;;;;;5013486;28;20224;-81
2020/12/14 11:31:23;;;;;;;16.77;15.47;;;6.80;99.90;;;;;;5013835;28;20259;-81
2020/12/14 11:33:51;;;;;;;16.33;15.03;;;6.70;99.90;;;;;;5015128;28;20194;-81
2020/12/14 11:36:23;;;;;;;16.83;15.50;;;6.70;99.90;;;;;;5013547;28;20221;-81
2020/12/14 11:38:49;;;;;;;16.30;15.10;;;6.80;99.90;;;;;;5011487;28;20197;-80
2020/12/14 11:41:15;;;;;;;16.50;15.20;;;6.80;99.90;;;;;;5013922;28;20646;-81
2020/12/14 11:43:41;;;;;;;16.23;15.13;;;6.90;99.90;;;;;;5014399;28;20188;-80
2020/12/14 11:46:08;;;;;;;16.97;15.57;;;6.90;99.90;;;;;;5014523;28;20278;-81
2020/12/14 11:48:34;;;;;;;16.07;14.90;;;7.00;99.90;;;;;;5013965;28;20694;-81
2020/12/14 11:51:01;;;;;;;16.20;15.10;;;7.00;99.90;;;;;;5013728;28;20196;-81
2020/12/14 11:53:27;;;;;;;16.07;14.97;;;7.00;99.90;;;;;;5012910;28;20204;-81
2020/12/14 11:55:54;;;;;;;16.43;15.30;;;6.90;99.90;;;;;;5012518;28;20573;-81
2020/12/14 11:58:20;;;;;;;15.97;14.87;;;7.00;99.90;;;;;;5012337;28;20584;-80
2020/12/14 12:00:46;;;;;;;15.50;14.43;;;7.00;99.90;;;;;;5014157;28;20621;-81
2020/12/14 12:03:12;;;;;;;14.43;13.43;;;7.10;99.90;;;;;;5013700;28;20201;-81
2020/12/14 12:05:39;;;;;;;15.57;14.37;;;7.20;99.90;;;;;;5012675;28;20218;-81
2020/12/14 12:08:06;;;;;;;15.37;14.27;;;7.30;99.90;;;;;;5012484;28;20264;-81
2020/12/14 12:10:33;;;;;;;14.33;13.33;;;7.40;99.90;;;;;;5013287;28;20614;-81
2020/12/14 12:12:59;;;;;;;14.17;13.17;;;7.40;99.90;;;;;;5013964;28;20256;-82
2020/12/14 12:15:26;;;;;;;14.03;13.07;;;7.50;99.90;;;;;;5014121;28;20272;-81
2020/12/14 12:17:53;;;;;;;13.83;12.83;;;7.70;99.90;;;;;;5013976;28;20314;-81
2020/12/14 12:20:19;;;;;;;14.80;13.70;;;7.70;99.90;;;;;;5013285;28;20189;-81
2020/12/14 12:22:46;;;;;;;14.23;13.23;;;7.70;99.90;;;;;;5013557;28;20256;-81
2020/12/14 12:25:13;;;;;;;14.73;13.73;;;7.80;99.90;;;;;;5011928;28;20287;-81
2020/12/14 12:27:39;;;;;;;14.40;13.33;;;7.90;99.90;;;;;;5012388;28;20201;-81
2020/12/14 12:30:06;;;;;;;13.93;12.83;;;7.90;99.90;;;;;;5011899;28;20202;-81
2020/12/14 12:32:32;;;;;;;13.87;12.87;;;7.90;99.90;;;;;;5013726;28;20189;-81
2020/12/14 12:34:59;;;;;;;14.00;13.00;;;8.00;99.90;;;;;;5013262;28;20283;-81
2020/12/14 12:37:25;;;;;;;13.93;12.93;;;8.00;99.90;;;;;;5012383;28;20200;-81
2020/12/14 12:39:51;;;;;;;14.50;13.50;;;8.10;99.90;;;;;;5012648;28;20195;-82
2020/12/14 12:42:18;;;;;;;13.13;12.23;;;8.20;99.90;;;;;;5011744;28;20257;-81